Time;durP1;ratioP1;P1;durP2;ratioP2;P2;SDS_P1;SDS_P2;PMS_P1;PMS_P2;Temp;Humidity;BMP_temperature;BMP_pressure;BME280_temperature;BME280_humidity;BME280_pressure;Samples;Min_cycle;Max_cycle;Signal;HPM_P1;HPM_P2
2022/06/22 00:01:01;;;;;;;;;15.00;11.33;;;;;21.31;45.50;100813.19;5060107;28;71963;-65
2022/06/22 00:03:27;;;;;;;;;10.00;10.00;;;;;21.32;45.55;100801.38;5052006;28;45184;-64
2022/06/22 00:05:52;;;;;;;;;12.00;10.00;;;;;21.29;45.65;100801.69;5057539;28;45529;-65
2022/06/22 00:08:27;;;;;;;;;12.00;10.67;;;;;21.22;46.19;100805.97;5058525;28;49527;-64
2022/06/22 00:11:10;;;;;;;;;9.33;8.00;;;;;21.14;46.11;100815.66;5062396;28;45401;-64
2022/06/22 00:13:36;;;;;;;;;9.00;9.00;;;;;21.10;45.90;100816.94;5054166;28;45394;-64
2022/06/22 00:16:05;;;;;;;;;9.33;8.33;;;;;21.09;46.58;100820.66;5059679;28;45261;-64
2022/06/22 00:18:33;;;;;;;;;13.67;9.33;;;;;21.09;46.15;100809.84;5056305;28;45393;-64
2022/06/22 00:21:01;;;;;;;;;10.33;9.00;;;;;21.09;46.10;100800.88;5057288;28;47207;-64
2022/06/22 00:23:30;;;;;;;;;11.67;10.33;;;;;21.07;46.28;100798.31;5060240;28;45413;-64
2022/06/22 00:26:14;;;;;;;;;7.67;7.67;;;;;21.07;46.78;100805.59;5057094;28;45307;-64
2022/06/22 00:29:09;;;;;;;;;8.33;7.33;;;;;21.03;46.37;100799.59;5059565;28;45322;-64
2022/06/22 00:32:02;;;;;;;;;10.00;10.00;;;;;20.94;46.31;100795.91;5058646;28;45457;-64
2022/06/22 00:34:33;;;;;;;;;9.00;8.00;;;;;20.88;46.49;100799.19;5068681;28;45234;-63
2022/06/22 00:37:06;;;;;;;;;9.00;7.00;;;;;20.87;46.72;100800.22;5059544;28;45410;-64
2022/06/22 00:39:37;;;;;;;;;9.33;9.33;;;;;20.88;46.79;100799.19;5056910;28;45365;-64
2022/06/22 00:42:15;;;;;;;;;9.67;9.67;;;;;20.89;47.02;100786.53;5057359;28;46080;-64
2022/06/22 00:45:05;;;;;;;;;9.67;8.67;;;;;20.90;46.67;100789.09;5055390;28;45968;-64
2022/06/22 00:47:30;;;;;;;;;10.67;10.67;;;;;20.92;47.21;100784.38;5058157;28;45554;-64
2022/06/22 00:50:00;;;;;;;;;11.00;9.00;;;;;20.92;47.24;100784.38;5058802;28;45547;-64
2022/06/22 00:52:39;;;;;;;;;16.33;10.00;;;;;20.89;47.30;100787.38;5058895;28;45388;-64
2022/06/22 00:55:36;;;;;;;;;12.33;10.67;;;;;20.87;46.72;100789.41;5065499;28;45363;-64
2022/06/22 00:58:07;;;;;;;;;13.33;12.00;;;;;20.88;47.30;100793.78;5057733;28;45204;-64
2022/06/22 01:00:36;;;;;;;;;13.00;10.67;;;;;20.88;46.71;100793.78;5062441;28;45614;-64
2022/06/22 01:03:15;;;;;;;;;13.00;12.00;;;;;20.83;47.04;100796.06;5066906;28;46175;-64
2022/06/22 01:05:49;;;;;;;;;10.00;10.00;;;;;20.81;46.84;100795.38;5061492;28;45459;-64
2022/06/22 01:08:22;;;;;;;;;12.00;8.33;;;;;20.85;46.80;100788.66;5065470;28;45445;-64
2022/06/22 01:12:16;;;;;;;;;9.00;7.67;;;;;20.90;47.00;100788.22;5063733;28;45743;-64
2022/06/22 01:13:52;;;;;;;;;13.00;12.00;;;;;20.90;47.30;100780.97;5049870;28;45336;-64
2022/06/22 01:16:27;;;;;;;;;10.33;9.67;;;;;20.89;46.87;100768.47;5068278;28;73046;-64
2022/06/22 01:19:01;;;;;;;;;11.00;9.67;;;;;20.88;47.28;100774.00;5057733;28;45555;-64
2022/06/22 01:21:31;;;;;;;;;10.00;8.67;;;;;20.85;46.70;100780.56;5048012;28;45677;-64
2022/06/22 01:24:18;;;;;;;;;12.00;10.33;;;;;20.86;47.17;100773.28;5087829;27;45572;-64
2022/06/22 01:27:17;;;;;;;;;10.33;10.33;;;;;20.86;47.17;100782.28;5058949;28;45492;-64
2022/06/22 01:30:23;;;;;;;;;12.33;10.33;;;;;20.86;46.55;100782.28;5066928;28;45521;-64
2022/06/22 01:32:49;;;;;;;;;12.33;9.33;;;;;20.81;46.70;100782.69;5052880;28;45922;-64
2022/06/22 01:35:21;;;;;;;;;15.00;12.00;;;;;20.76;46.85;100774.16;5063889;28;46081;-64
2022/06/22 01:37:46;;;;;;;;;8.00;8.00;;;;;20.70;47.07;100771.19;5059938;28;45540;-64
2022/06/22 01:40:16;;;;;;;;;14.67;10.33;;;;;20.61;47.19;100770.16;5058431;28;45427;-64
2022/06/22 01:42:56;;;;;;;;;12.67;11.67;;;;;20.56;47.42;100781.41;5054786;28;45431;-64
2022/06/22 01:45:26;;;;;;;;;10.33;10.33;;;;;20.53;46.90;100778.13;5062359;28;45343;-64
2022/06/22 01:48:01;;;;;;;;;12.00;12.00;;;;;20.46;47.65;100785.94;5060589;28;45342;-64
2022/06/22 01:50:37;;;;;;;;;10.00;10.00;;;;;20.43;47.25;100781.69;5058360;28;45574;-64
2022/06/22 01:53:20;;;;;;;;;12.67;12.67;;;;;20.40;47.72;100781.97;5063104;28;45342;-64
2022/06/22 01:55:47;;;;;;;;;9.00;9.00;;;;;20.37;47.69;100787.66;5057593;28;46176;-63
2022/06/22 01:58:19;;;;;;;;;11.33;11.00;;;;;20.38;47.69;100788.53;5073855;27;45421;-63
2022/06/22 02:00:52;;;;;;;;;11.67;9.33;;;;;20.37;47.90;100789.50;5064240;28;45455;-64
2022/06/22 02:03:33;;;;;;;;;9.00;9.00;;;;;20.31;47.48;100796.31;5058642;27;45298;-64
2022/06/22 02:09:02;;;;;;;;;11.00;10.00;;;;;20.27;47.80;100801.16;5054601;28;45687;-64
2022/06/22 02:11:33;;;;;;;;;9.67;8.67;;;;;20.19;47.52;100792.88;5058004;28;45468;-64
2022/06/22 02:14:03;;;;;;;;;12.00;11.00;;;;;20.21;47.73;100815.22;5058706;28;45313;-64
2022/06/22 02:16:48;;;;;;;;;11.67;11.67;;;;;20.20;48.12;100818.91;5064619;28;47297;-64
2022/06/22 02:19:15;;;;;;;;;11.33;10.33;;;;;20.20;47.99;100812.66;5059279;28;45744;-64
2022/06/22 02:21:49;;;;;;;;;12.33;8.67;;;;;20.23;47.82;100804.25;5058381;28;45271;-64
2022/06/22 02:24:26;;;;;;;;;10.00;10.00;;;;;20.25;47.87;100799.59;5058492;28;45641;-64
2022/06/22 02:26:53;;;;;;;;;14.00;10.00;;;;;20.26;47.85;100799.44;5054660;28;47082;-64
2022/06/22 02:29:22;;;;;;;;;10.00;10.00;;;;;20.31;48.23;100796.31;5058162;28;45462;-64
2022/06/22 02:31:51;;;;;;;;;11.33;10.00;;;;;20.30;47.67;100786.53;5063193;28;45672;-64
2022/06/22 02:34:17;;;;;;;;;10.00;10.00;;;;;20.23;47.81;100775.41;5060591;28;45488;-64
2022/06/22 02:36:46;;;;;;;;;15.33;10.33;;;;;20.22;48.27;100775.53;5062000;27;46307;-64
2022/06/22 02:39:13;;;;;;;;;9.00;8.33;;;;;20.23;47.88;100777.25;5055303;28;45355;-64
2022/06/22 02:44:29;;;;;;;;;8.00;8.00;;;;;20.21;48.00;100774.69;5060337;28;45327;-64
2022/06/22 02:47:17;;;;;;;;;11.33;11.00;;;;;20.18;47.87;100777.69;5065742;27;46283;-64
2022/06/22 02:49:59;;;;;;;;;10.00;10.00;;;;;20.18;48.08;100775.00;5063252;28;45446;-64
2022/06/22 02:52:33;;;;;;;;;10.00;10.00;;;;;20.19;48.44;100775.84;5082377;27;45321;-64
2022/06/22 02:54:59;;;;;;;;;13.00;9.33;;;;;20.20;48.49;100778.38;5056376;28;45480;-64
2022/06/22 02:57:33;;;;;;;;;11.00;10.00;;;;;20.19;47.78;100783.94;5065236;28;46965;-63
2022/06/22 02:59:58;;;;;;;;;14.00;9.33;;;;;20.16;48.06;100783.22;5056590;28;45289;-64
2022/06/22 03:02:25;;;;;;;;;11.33;11.33;;;;;20.14;48.09;100785.22;5055208;28;68164;-64
2022/06/22 03:04:51;;;;;;;;;11.33;10.33;;;;;20.13;48.26;100785.34;5061914;28;45206;-64
2022/06/22 03:07:17;;;;;;;;;12.67;11.00;;;;;20.11;48.35;100782.78;5056106;28;46690;-64
2022/06/22 03:09:43;;;;;;;;;14.00;12.00;;;;;20.09;48.02;100768.59;5056119;28;45619;-64
2022/06/22 03:12:12;;;;;;;;;8.00;7.67;;;;;20.04;48.69;100773.53;5059489;28;65590;-64
2022/06/22 03:14:46;;;;;;;;;12.00;10.00;;;;;19.96;48.65;100766.13;5062585;28;45601;-64
2022/06/22 03:17:17;;;;;;;;;8.00;8.00;;;;;19.88;49.00;100757.03;5063790;28;45434;-64
2022/06/22 03:20:00;;;;;;;;;11.67;10.67;;;;;19.85;48.84;100750.06;5057268;28;45504;-64
2022/06/22 03:22:31;;;;;;;;;12.67;11.33;;;;;19.78;48.90;100749.72;5061335;28;45679;-64
2022/06/22 03:25:02;;;;;;;;;13.33;11.67;;;;;19.66;49.05;100740.03;5059918;28;45213;-64
2022/06/22 03:27:33;;;;;;;;;15.00;10.67;;;;;19.61;49.06;100739.59;5062769;28;46302;-64
2022/06/22 03:30:02;;;;;;;;;13.67;12.00;;;;;19.59;49.41;100736.19;5054359;28;45228;-64
2022/06/22 03:32:43;;;;;;;;;14.67;12.67;;;;;19.53;49.32;100732.19;5062006;28;45374;-64
2022/06/22 03:35:13;;;;;;;;;10.67;9.00;;;;;19.48;49.32;100718.25;5063158;28;45680;-64
2022/06/22 03:37:44;;;;;;;;;11.67;11.00;;;;;19.44;49.81;100708.75;5054179;28;45610;-64
2022/06/22 03:40:23;;;;;;;;;16.00;13.33;;;;;19.41;49.68;100717.97;5060391;28;45598;-64
2022/06/22 03:42:51;;;;;;;;;12.00;12.00;;;;;19.39;49.62;100722.63;5071616;27;45410;-64
2022/06/22 03:45:24;;;;;;;;;14.67;13.00;;;;;19.37;49.87;100737.22;5052153;28;45365;-65
2022/06/22 03:48:02;;;;;;;;;12.67;11.33;;;;;19.38;49.57;100722.75;5052384;28;46895;-64
2022/06/22 03:51:03;;;;;;;;;12.00;12.00;;;;;19.37;49.66;100721.03;5057679;28;45438;-64
2022/06/22 03:53:38;;;;;;;;;11.00;10.33;;;;;19.37;49.78;100713.81;5036564;28;45493;-64
2022/06/22 03:56:08;;;;;;;;;11.00;11.00;;;;;19.41;49.82;100714.38;5064609;28;45444;-64
2022/06/22 03:58:34;;;;;;;;;11.67;10.67;;;;;19.43;49.77;100709.72;5060675;28;46265;-65
2022/06/22 04:01:02;;;;;;;;;11.00;9.33;;;;;19.45;50.27;100700.50;5060325;28;71871;-65
2022/06/22 04:03:28;;;;;;;;;15.33;12.00;;;;;19.48;50.08;100707.47;5055449;28;45493;-65
2022/06/22 04:05:56;;;;;;;;;14.67;11.00;;;;;19.53;49.97;100707.03;5063319;28;46488;-64
2022/06/22 04:08:28;;;;;;;;;12.67;11.67;;;;;19.58;49.88;100711.06;5056345;28;45410;-65
2022/06/22 04:11:16;;;;;;;;;15.67;13.00;;;;;19.64;50.10;100717.72;5067089;28;45373;-65
2022/06/22 04:13:48;;;;;;;;;12.00;10.67;;;;;19.71;49.91;100727.00;5060937;28;45244;-64
2022/06/22 04:16:19;;;;;;;;;11.33;10.00;;;;;19.76;49.72;100721.16;5054716;28;45318;-64
2022/06/22 04:18:58;;;;;;;;;11.67;10.33;;;;;19.78;49.43;100730.84;5056565;28;46869;-65
2022/06/22 04:21:31;;;;;;;;;16.00;13.00;;;;;19.81;49.86;100732.41;5073788;27;45425;-64
2022/06/22 04:24:04;;;;;;;;;14.67;11.00;;;;;19.83;49.52;100736.69;5061492;28;45434;-65
2022/06/22 04:27:05;;;;;;;;;10.67;10.67;;;;;19.88;49.88;100733.59;5079587;27;45184;-64
2022/06/22 04:29:39;;;;;;;;;10.33;10.33;;;;;19.93;49.31;100744.84;5061067;28;46173;-64
2022/06/22 04:32:40;;;;;;;;;6.33;6.33;;;;;19.98;49.46;100730.91;5063697;28;45509;-64
2022/06/22 04:35:33;;;;;;;;;12.67;11.00;;;;;20.03;49.21;100720.53;5070554;28;45397;-64
2022/06/22 04:38:13;;;;;;;;;11.00;10.67;;;;;20.05;49.17;100721.25;5056250;28;45355;-64
2022/06/22 04:40:49;;;;;;;;;14.33;11.33;;;;;20.07;48.87;100731.91;5058125;28;47397;-64
2022/06/22 04:43:15;;;;;;;;;14.00;12.00;;;;;20.07;49.01;100726.53;5059910;28;45382;-64
2022/06/22 04:45:43;;;;;;;;;16.33;14.33;;;;;20.09;49.11;100736.19;5061562;28;45483;-64
2022/06/22 04:48:13;;;;;;;;;12.00;12.00;;;;;20.09;48.73;100741.59;5057112;28;45805;-64
2022/06/22 04:50:40;;;;;;;;;11.33;11.00;;;;;20.13;49.34;100747.56;5059898;28;46157;-65
2022/06/22 04:53:13;;;;;;;;;12.67;11.33;;;;;20.16;49.13;100729.22;5063579;28;45799;-64
2022/06/22 04:55:41;;;;;;;;;14.33;12.67;;;;;20.17;49.37;100730.91;5069521;28;45282;-65
2022/06/22 04:58:33;;;;;;;;;12.00;12.00;;;;;20.14;48.65;100724.94;5067525;28;45358;-64
2022/06/22 05:00:59;;;;;;;;;15.33;14.00;;;;;20.13;49.22;100724.09;5059485;28;46090;-64
2022/06/22 05:03:24;;;;;;;;;10.33;10.33;;;;;20.12;48.75;100721.56;5054195;28;70995;-64
2022/06/22 05:05:50;;;;;;;;;13.33;12.00;;;;;20.11;48.70;100717.13;5054549;28;45922;-65
2022/06/22 05:08:40;;;;;;;;;15.00;14.67;;;;;20.06;49.01;100733.75;5050499;28;45664;-64
2022/06/22 05:11:15;;;;;;;;;14.00;12.33;;;;;19.99;48.80;100721.81;5049365;28;47062;-65
2022/06/22 05:13:47;;;;;;;;;14.00;12.67;;;;;20.02;49.30;100720.69;5059053;28;45548;-65
2022/06/22 05:16:16;;;;;;;;;12.00;12.00;;;;;20.02;49.19;100707.19;5068516;28;45528;-64
2022/06/22 05:18:43;;;;;;;;;11.67;11.67;;;;;20.00;49.09;100723.53;5059423;27;45560;-64
2022/06/22 05:21:30;;;;;;;;;14.00;12.00;;;;;19.98;49.03;100725.50;5065972;28;46127;-65
2022/06/22 05:23:58;;;;;;;;;11.67;11.67;;;;;19.99;48.84;100728.06;5057201;28;45369;-65
2022/06/22 05:26:24;;;;;;;;;10.00;8.33;;;;;20.00;49.08;100735.16;5062338;27;45523;-64
2022/06/22 05:29:00;;;;;;;;;15.00;13.00;;;;;19.98;49.32;100741.69;5061085;28;68843;-65
2022/06/22 05:31:28;;;;;;;;;16.00;14.67;;;;;19.94;48.65;100742.97;5061856;28;45535;-65
2022/06/22 05:34:04;;;;;;;;;13.33;12.00;;;;;19.91;49.25;100735.16;5050209;28;45605;-65
2022/06/22 05:36:32;;;;;;;;;11.33;11.33;;;;;19.82;48.89;100742.25;5075240;27;45541;-65
2022/06/22 05:39:00;;;;;;;;;17.00;15.00;;;;;19.70;49.20;100737.91;5055961;28;45429;-65
2022/06/22 05:41:29;;;;;;;;;10.33;10.00;;;;;19.62;49.42;100725.97;5045660;28;45356;-65
2022/06/22 05:43:57;;;;;;;;;11.67;11.67;;;;;19.57;49.29;100730.06;5044739;28;45486;-65
2022/06/22 05:46:23;;;;;;;;;12.00;12.00;;;;;19.49;49.78;100736.16;5062273;28;45493;-65
2022/06/22 05:48:49;;;;;;;;;15.33;13.33;;;;;19.46;49.91;100717.53;5060707;28;45227;-65
2022/06/22 05:51:45;;;;;;;;;16.33;15.00;;;;;19.45;49.74;100723.91;5060587;28;46251;-65
2022/06/22 05:54:20;;;;;;;;;14.33;13.33;;;;;19.47;49.80;100728.19;5073699;27;45377;-65
2022/06/22 05:56:51;;;;;;;;;16.00;14.33;;;;;19.46;49.48;100728.31;5053148;28;45307;-65
2022/06/22 05:59:34;;;;;;;;;15.33;13.00;;;;;19.32;49.90;100737.63;5060005;28;46265;-65
2022/06/22 06:02:10;;;;;;;;;16.67;14.33;;;;;19.24;50.20;100732.06;5057226;28;46262;-65
2022/06/22 06:05:00;;;;;;;;;17.33;15.33;;;;;19.16;50.27;100725.50;5058801;28;45541;-65
2022/06/22 06:07:33;;;;;;;;;13.67;13.33;;;;;19.09;50.37;100726.19;5048728;28;45508;-65
2022/06/22 06:10:00;;;;;;;;;17.00;14.67;;;;;19.01;50.52;100729.53;5058034;28;46185;-65
2022/06/22 06:12:31;;;;;;;;;14.00;14.00;;;;;18.98;50.57;100729.78;5058371;28;47100;-65
2022/06/22 06:14:57;;;;;;;;;17.00;14.33;;;;;18.95;50.96;100722.81;5055614;28;45391;-65
2022/06/22 06:17:38;;;;;;;;;13.00;12.00;;;;;18.94;51.22;100729.22;5052800;28;45287;-65
2022/06/22 06:20:07;;;;;;;;;15.67;13.33;;;;;18.97;51.47;100730.81;5058730;28;45693;-64
2022/06/22 06:22:36;;;;;;;;;19.33;13.00;;;;;18.97;51.19;100730.81;5053935;28;46389;-64
2022/06/22 06:27:56;;;;;;;;;22.00;15.67;;;;;18.94;51.62;100733.75;5057989;28;45840;-64
2022/06/22 06:30:29;;;;;;;;;17.33;14.00;;;;;18.94;51.49;100737.31;5058569;28;45444;-65
2022/06/22 06:33:10;;;;;;;;;14.33;14.33;;;;;18.96;51.42;100731.78;5062196;28;46093;-66
2022/06/22 06:35:45;;;;;;;;;15.33;14.33;;;;;18.99;51.69;100732.38;5057921;28;45571;-65
2022/06/22 06:38:11;;;;;;;;;14.33;13.33;;;;;19.01;51.35;100733.09;5058042;28;45482;-66
2022/06/22 06:40:42;;;;;;;;;16.00;14.33;;;;;19.03;51.50;100735.63;5062596;28;45322;-66
2022/06/22 06:43:29;;;;;;;;;16.00;14.67;;;;;19.05;51.61;100732.84;5063578;28;45553;-66
2022/06/22 06:45:56;;;;;;;;;16.67;14.33;;;;;19.07;51.70;100729.00;5053969;28;45319;-66
2022/06/22 06:48:25;;;;;;;;;20.33;15.00;;;;;19.07;51.55;100734.38;5051682;28;45560;-65
2022/06/22 06:50:53;;;;;;;;;14.67;14.33;;;;;19.09;51.54;100723.50;5054188;28;45166;-64
2022/06/22 06:53:34;;;;;;;;;18.00;15.00;;;;;19.12;51.27;100728.59;5061553;28;45711;-65
2022/06/22 06:56:19;;;;;;;;;16.00;12.33;;;;;19.13;51.70;100733.84;5056391;28;45580;-59
2022/06/22 06:58:49;;;;;;;;;15.67;15.67;;;;;19.13;51.61;100743.78;5052211;28;45460;-61
2022/06/22 07:01:19;;;;;;;;;14.33;13.67;;;;;19.10;51.38;100734.13;5047934;28;45511;-63
2022/06/22 07:03:45;;;;;;;;;20.00;13.33;;;;;19.13;51.33;100738.41;5056260;28;46376;-59
2022/06/22 07:06:11;;;;;;;;;15.67;14.00;;;;;19.13;51.33;100730.31;5048906;28;46248;-61
2022/06/22 07:08:39;;;;;;;;;13.67;12.33;;;;;19.10;51.38;100738.66;5055521;28;45605;-60
2022/06/22 07:11:32;;;;;;;;;15.33;15.00;;;;;19.12;51.77;100744.78;5053587;28;45442;-60
2022/06/22 07:14:05;;;;;;;;;15.00;13.00;;;;;19.10;51.60;100734.13;5057651;28;46215;-60
2022/06/22 07:16:31;;;;;;;;;16.33;15.67;;;;;19.12;51.91;100734.84;5054247;28;45404;-60
2022/06/22 07:19:04;;;;;;;;;15.00;14.00;;;;;19.17;51.75;100739.84;5053918;28;67539;-60
2022/06/22 07:21:45;;;;;;;;;15.00;14.00;;;;;19.23;51.64;100742.00;5064351;27;45680;-60
2022/06/22 07:24:21;;;;;;;;;17.33;15.00;;;;;19.25;51.53;100731.91;5051068;28;46773;-60
2022/06/22 07:27:06;;;;;;;;;17.00;13.67;;;;;19.27;51.72;100729.94;5054909;28;45367;-60
2022/06/22 07:29:43;;;;;;;;;13.67;13.67;;;;;19.29;51.74;100721.72;5045521;28;45398;-59
2022/06/22 07:32:15;;;;;;;;;20.67;16.33;;;;;19.26;51.46;100732.78;5056901;28;45560;-60
2022/06/22 07:34:47;;;;;;;;;17.00;16.00;;;;;19.26;52.03;100735.50;5057187;28;47042;-60
2022/06/22 07:37:24;;;;;;;;;13.33;13.33;;;;;19.28;51.68;100731.66;5052639;28;45521;-60
2022/06/22 07:39:55;;;;;;;;;19.00;19.00;;;;;19.33;51.65;100733.94;5056667;28;45432;-60
2022/06/22 07:42:21;;;;;;;;;19.00;17.67;;;;;19.38;51.40;100736.25;5046420;28;45561;-59
2022/06/22 07:44:47;;;;;;;;;16.67;15.00;;;;;19.40;51.46;100739.63;5055533;28;46324;-60
2022/06/22 07:47:43;;;;;;;;;19.33;14.67;;;;;19.44;51.85;100736.56;5047401;28;68817;-59
2022/06/22 07:50:14;;;;;;;;;15.33;14.00;;;;;19.52;51.63;100738.56;5051735;28;45375;-59
2022/06/22 07:52:50;;;;;;;;;16.00;14.33;;;;;19.57;51.67;100746.22;5052033;28;45407;-60
2022/06/22 07:55:32;;;;;;;;;16.67;15.00;;;;;19.61;51.74;100748.53;5049492;28;46263;-60
2022/06/22 07:58:16;;;;;;;;;19.67;15.67;;;;;19.66;51.35;100748.13;5057153;28;45371;-60
2022/06/22 08:00:43;;;;;;;;;12.33;12.33;;;;;19.74;51.35;100753.69;5056581;28;45677;-60
2022/06/22 08:03:20;;;;;;;;;16.00;14.67;;;;;19.82;51.25;100761.13;5058924;28;45291;-60
2022/06/22 08:05:48;;;;;;;;;16.67;13.67;;;;;19.90;50.75;100757.75;5056538;28;45469;-60
2022/06/22 08:08:21;;;;;;;;;13.33;13.33;;;;;19.98;51.36;100750.63;5059360;28;45742;-60
2022/06/22 08:10:54;;;;;;;;;13.00;13.00;;;;;20.07;50.51;100758.91;5076866;27;45582;-59
2022/06/22 08:13:32;;;;;;;;;14.33;13.00;;;;;20.10;50.81;100755.91;5052383;28;45539;-59
2022/06/22 08:16:09;;;;;;;;;15.00;13.33;;;;;20.12;50.54;100762.06;5047985;28;45433;-60
2022/06/22 08:18:35;;;;;;;;;14.67;13.33;;;;;20.14;50.52;100757.34;5057404;28;45466;-60
2022/06/22 08:21:01;;;;;;;;;18.33;17.00;;;;;20.11;50.36;100753.06;5045096;28;45470;-60
2022/06/22 08:23:31;;;;;;;;;15.00;15.00;;;;;20.15;49.99;100767.16;5040255;28;57021;-61
2022/06/22 08:25:57;;;;;;;;;25.33;17.00;;;;;20.19;49.97;100767.75;5045017;28;45706;-60
2022/06/22 08:28:24;;;;;;;;;17.00;13.67;;;;;20.27;50.41;100776.84;5045599;28;45433;-60
2022/06/22 08:30:52;;;;;;;;;21.00;13.33;;;;;20.40;49.81;100763.06;5054587;28;45385;-60
2022/06/22 08:33:22;;;;;;;;;13.67;11.33;;;;;20.54;49.79;100756.38;5060226;28;45473;-60
2022/06/22 08:35:51;;;;;;;;;18.33;16.00;;;;;20.77;49.35;100758.81;5050642;28;46250;-60
2022/06/22 08:38:31;;;;;;;;;15.33;12.67;;;;;21.09;49.01;100753.06;5050211;28;45357;-60
2022/06/22 08:41:05;;;;;;;;;14.00;12.67;;;;;21.52;48.99;100744.50;5056114;28;45389;-60
2022/06/22 08:43:39;;;;;;;;;10.67;10.67;;;;;22.11;48.37;100747.72;5051934;28;45373;-60
2022/06/22 08:46:39;;;;;;;;;15.00;12.00;;;;;22.77;47.09;100746.50;5055198;28;46199;-61
2022/06/22 08:49:26;;;;;;;;;10.00;10.00;;;;;23.51;46.51;100754.25;5048868;28;45334;-61
2022/06/22 08:52:12;;;;;;;;;15.67;14.67;;;;;24.26;44.92;100760.78;5053432;28;45461;-61
2022/06/22 08:54:52;;;;;;;;;13.33;13.33;;;;;24.64;43.96;100744.03;5091210;27;45374;-61
2022/06/22 08:57:21;;;;;;;;;15.00;13.67;;;;;24.76;44.12;100748.13;5059976;28;45506;-61
2022/06/22 09:00:08;;;;;;;;;17.33;13.33;;;;;24.92;42.94;100747.25;5060678;28;45447;-61
2022/06/22 09:03:11;;;;;;;;;18.67;15.67;;;;;25.39;42.66;100753.78;5060508;28;45238;-61
2022/06/22 09:06:04;;;;;;;;;11.00;9.33;;;;;26.00;42.10;100751.28;5059334;28;46602;-61
2022/06/22 09:08:44;;;;;;;;;16.00;11.33;;;;;26.49;41.43;100747.44;5054133;28;46082;-61
2022/06/22 09:11:18;;;;;;;;;15.00;14.00;;;;;26.56;40.33;100751.09;5055016;28;45624;-61
2022/06/22 09:13:52;;;;;;;;;18.00;18.00;;;;;26.54;40.21;100749.59;5059747;28;45369;-60
2022/06/22 09:16:21;;;;;;;;;15.67;14.33;;;;;26.77;40.37;100751.50;5054293;28;45307;-61
2022/06/22 09:19:07;;;;;;;;;13.33;13.00;;;;;27.21;39.23;100748.81;5052524;28;45317;-61
2022/06/22 09:21:45;;;;;;;;;14.00;14.00;;;;;27.59;38.80;100744.28;5039543;28;45506;-61
2022/06/22 09:24:32;;;;;;;;;19.33;12.00;;;;;28.05;38.51;100744.03;5050854;28;45350;-60
2022/06/22 09:27:16;;;;;;;;;13.67;13.67;;;;;28.38;37.76;100755.31;5053069;28;45546;-60
2022/06/22 09:30:00;;;;;;;;;14.67;13.33;;;;;28.55;36.77;100750.44;5050361;28;46157;-61
2022/06/22 09:33:00;;;;;;;;;14.00;12.67;;;;;28.59;36.85;100756.38;5059151;28;45506;-66
2022/06/22 09:35:31;;;;;;;;;14.67;11.67;;;;;28.62;36.71;100755.13;5056817;28;45369;-61
2022/06/22 09:38:08;;;;;;;;;16.33;14.33;;;;;28.80;36.14;100752.78;5060382;28;45318;-61
2022/06/22 09:40:55;;;;;;;;;14.00;14.00;;;;;28.86;36.10;100742.91;5059630;28;45305;-61
2022/06/22 09:43:29;;;;;;;;;15.33;11.33;;;;;28.79;36.40;100751.06;5058465;28;45339;-61
2022/06/22 09:46:32;;;;;;;;;14.33;14.33;;;;;28.95;36.19;100747.19;5061219;28;45312;-61
2022/06/22 09:49:06;;;;;;;;;13.33;12.67;;;;;29.17;35.66;100739.75;5060822;28;45633;-61
2022/06/22 09:51:56;;;;;;;;;14.67;14.67;;;;;29.34;35.09;100740.31;5058615;28;46916;-61
2022/06/22 09:57:45;;;;;;;;;14.00;14.00;;;;;30.02;35.11;100741.44;5049513;28;45449;-61
2022/06/22 10:00:10;;;;;;;;;15.33;13.00;;;;;30.31;34.92;100744.88;5063196;28;45245;-61
2022/06/22 10:03:04;;;;;;;;;13.00;13.00;;;;;30.67;34.42;100744.50;5052721;28;46212;-61
2022/06/22 10:05:45;;;;;;;;;13.00;13.00;;;;;31.10;33.31;100737.75;5049137;28;45475;-61
2022/06/22 10:08:27;;;;;;;;;14.67;12.67;;;;;31.41;33.07;100740.84;5045954;28;45370;-61
2022/06/22 10:11:03;;;;;;;;;14.67;14.33;;;;;31.69;33.32;100736.97;5060276;28;45367;-61
2022/06/22 10:13:55;;;;;;;;;12.33;12.33;;;;;31.93;32.11;100744.44;5058505;28;45636;-60
2022/06/22 10:16:54;;;;;;;;;14.33;12.67;;;;;32.15;32.14;100736.69;5050953;28;45378;-60
2022/06/22 10:19:41;;;;;;;;;14.67;13.67;;;;;32.46;31.61;100748.81;5059240;28;45333;-60
2022/06/22 10:22:22;;;;;;;;;13.67;13.67;;;;;32.46;31.00;100739.69;5044175;28;46520;-62
2022/06/22 10:25:33;;;;;;;;;12.67;11.67;;;;;32.12;31.82;100741.81;5047003;28;45383;-62
2022/06/22 10:28:23;;;;;;;;;13.67;12.67;;;;;31.44;32.07;100745.91;5057400;28;45252;-62
2022/06/22 10:30:58;;;;;;;;;13.33;13.33;;;;;30.91;32.83;100747.69;5050276;28;45429;-61
2022/06/22 10:34:00;;;;;;;;;15.67;12.67;;;;;30.29;33.12;100741.53;5044239;28;45420;-62
2022/06/22 10:36:48;;;;;;;;;13.33;12.00;;;;;29.57;33.45;100739.16;5051120;28;46369;-61
2022/06/22 10:39:44;;;;;;;;;16.33;14.67;;;;;29.09;34.33;100742.66;5071429;28;45832;-61
2022/06/22 10:45:24;;;;;;;;;13.33;13.33;;;;;28.29;35.61;100745.56;5054947;28;45594;-60
2022/06/22 10:48:24;;;;;;;;;14.67;14.00;;;;;27.98;35.85;100735.75;5052265;28;45682;-60
2022/06/22 10:50:56;;;;;;;;;15.33;14.00;;;;;27.82;36.18;100733.22;5043586;28;45256;-60
2022/06/22 10:53:22;;;;;;;;;16.00;14.33;;;;;27.64;36.53;100734.50;5058118;28;45418;-60
2022/06/22 10:56:35;;;;;;;;;13.33;12.67;;;;;27.56;37.38;100734.59;5059599;28;45501;-60
2022/06/22 10:59:05;;;;;;;;;18.67;14.67;;;;;27.51;37.33;100737.06;5058609;28;46333;-60
2022/06/22 11:01:39;;;;;;;;;14.00;13.67;;;;;27.42;37.51;100730.84;5057439;28;45442;-59
2022/06/22 11:04:27;;;;;;;;;15.67;14.00;;;;;27.29;37.86;100731.50;5056651;28;45462;-61
2022/06/22 11:07:11;;;;;;;;;16.67;14.00;;;;;27.17;38.27;100724.78;5050826;28;45633;-61
2022/06/22 11:10:27;;;;;;;;;14.33;14.33;;;;;27.02;38.38;100722.91;5046364;28;45442;-61
2022/06/22 11:13:17;;;;;;;;;14.67;14.33;;;;;26.94;39.07;100724.88;5056340;28;45296;-60
2022/06/22 11:15:53;;;;;;;;;8.67;8.67;;;;;26.90;39.47;100727.13;5050980;28;45412;-60
2022/06/22 11:18:25;;;;;;;;;15.00;12.00;;;;;26.84;39.14;100726.00;5051963;28;45584;-59
2022/06/22 11:21:09;;;;;;;;;13.00;13.00;;;;;26.87;39.33;100730.22;5054869;28;45589;-61
2022/06/22 11:23:58;;;;;;;;;15.67;15.67;;;;;26.91;40.03;100734.28;5051238;28;45392;-61
2022/06/22 11:33:18;;;;;;;;;17.67;17.67;;;;;27.03;39.61;100730.06;5048251;28;45487;-60
2022/06/22 11:35:52;;;;;;;;;16.33;14.00;;;;;27.27;39.77;100730.81;5057636;28;45364;-61
2022/06/22 11:38:39;;;;;;;;;13.67;11.67;;;;;27.45;39.81;100735.09;5047926;28;45395;-61
2022/06/22 11:41:20;;;;;;;;;16.00;14.00;;;;;27.51;39.91;100728.88;5042186;28;45435;-61
2022/06/22 11:43:52;;;;;;;;;13.00;13.00;;;;;27.62;39.54;100731.09;5056360;28;45923;-61
2022/06/22 11:46:28;;;;;;;;;13.00;12.67;;;;;27.67;39.70;100717.72;5054994;28;45344;-61
2022/06/22 11:49:14;;;;;;;;;15.00;13.67;;;;;27.81;40.21;100718.72;5064141;28;45477;-64
2022/06/22 11:52:17;;;;;;;;;12.33;11.33;;;;;28.19;39.73;100712.22;5059664;28;45386;-64
2022/06/22 11:54:53;;;;;;;;;18.00;16.00;;;;;28.73;39.43;100705.34;5057700;28;47128;-60
2022/06/22 11:57:52;;;;;;;;;14.33;14.33;;;;;29.21;38.38;100701.88;5081276;27;45593;-60
2022/06/22 12:00:17;;;;;;;;;12.33;12.00;;;;;29.76;38.06;100703.81;5065386;28;45536;-60
2022/06/22 12:03:11;;;;;;;;;15.33;15.33;;;;;29.97;37.53;100711.06;5056927;28;46493;-60
2022/06/22 12:05:59;;;;;;;;;16.00;14.67;;;;;29.99;37.46;100714.47;5062534;28;46387;-60
2022/06/22 12:08:34;;;;;;;;;15.33;14.00;;;;;29.77;37.62;100697.31;5063181;28;45571;-60
2022/06/22 12:11:44;;;;;;;;;12.67;12.67;;;;;29.54;37.83;100702.06;5080542;27;45719;-61
2022/06/22 12:17:38;;;;;;;;;17.00;14.67;;;;;29.12;38.06;100722.25;5062164;28;45882;-60
2022/06/22 12:20:17;;;;;;;;;13.00;13.00;;;;;28.95;38.46;100716.25;5081282;27;45488;-60